Time;durP1;ratioP1;P1;durP2;ratioP2;P2;SDS_P1;SDS_P2;PMS_P1;PMS_P2;Temp;Humidity;BMP_temperature;BMP_pressure;BME280_temperature;BME280_humidity;BME280_pressure;Samples;Min_cycle;Max_cycle;Signal;HPM_P1;HPM_P2
2021/04/28 00:00:37;;;;;;;30.27;14.55;;;;;;;3.37;42.58;98114.03;5050622;28;20527;-76
2021/04/28 00:03:05;;;;;;;28.63;13.35;;;;;;;3.34;42.51;98111.81;5050155;28;20021;-76
2021/04/28 00:05:31;;;;;;;28.25;14.25;;;;;;;3.33;42.25;98111.00;5050374;28;20429;-76
2021/04/28 00:07:56;;;;;;;34.03;15.63;;;;;;;3.33;42.73;98110.19;5050257;28;20056;-76
2021/04/28 00:10:36;;;;;;;35.67;15.77;;;;;;;3.32;42.64;98112.06;5050364;28;20132;-77
2021/04/28 00:13:03;;;;;;;29.38;15.43;;;;;;;3.28;42.73;98111.78;5050174;28;20025;-77
2021/04/28 00:15:32;;;;;;;31.15;14.65;;;;;;;3.21;43.01;98100.31;5050368;28;20021;-76
2021/04/28 00:17:58;;;;;;;32.15;15.18;;;;;;;3.24;43.06;98099.00;5050288;28;20033;-76
2021/04/28 00:20:25;;;;;;;34.75;14.88;;;;;;;3.30;43.06;98099.84;5049146;28;20204;-77
2021/04/28 00:22:50;;;;;;;33.58;15.75;;;;;;;3.36;42.34;98106.97;5049756;28;20652;-76
2021/04/28 00:25:19;;;;;;;38.10;15.75;;;;;;;3.42;43.14;98105.94;5048743;28;20075;-77
2021/04/28 00:27:45;;;;;;;32.45;15.63;;;;;;;3.47;42.77;98102.44;5049945;28;20020;-76
2021/04/28 00:30:13;;;;;;;34.45;16.30;;;;;;;3.52;42.14;98100.56;5050206;28;20024;-76
2021/04/28 00:32:39;;;;;;;33.72;15.80;;;;;;;3.60;42.71;98106.59;5050327;28;20047;-76
2021/04/28 00:35:09;;;;;;;31.48;15.60;;;;;;;3.64;42.12;98102.31;5049909;28;20496;-76
2021/04/28 00:37:34;;;;;;;31.23;16.15;;;;;;;3.70;42.04;98102.06;5050046;28;20139;-75
2021/04/28 00:39:59;;;;;;;34.88;16.08;;;;;;;3.77;42.78;98104.56;5050148;28;20119;-76
2021/04/28 00:42:26;;;;;;;35.70;16.58;;;;;;;3.81;43.05;98102.16;5049856;28;20078;-76
2021/04/28 00:44:51;;;;;;;33.83;15.85;;;;;;;3.85;42.42;98103.28;5048664;28;20017;-76
2021/04/28 00:47:17;;;;;;;34.58;15.80;;;;;;;3.90;42.99;98107.91;5049958;28;20021;-76
2021/04/28 00:49:42;;;;;;;33.00;15.85;;;;;;;3.95;42.95;98099.78;5049914;28;20033;-76
2021/04/28 00:52:08;;;;;;;39.45;17.92;;;;;;;4.01;42.65;98106.91;5050088;28;20056;-76
2021/04/28 00:54:35;;;;;;;38.40;16.65;;;;;;;4.06;42.45;98098.00;5049822;28;20119;-76
2021/04/28 00:57:04;;;;;;;35.80;17.38;;;;;;;4.09;42.42;98095.56;5049428;28;20489;-76
2021/04/28 00:59:30;;;;;;;39.85;17.55;;;;;;;4.12;42.35;98095.03;5049483;28;20116;-74
2021/04/28 01:01:56;;;;;;;33.22;16.60;;;;;;;4.14;42.06;98092.03;5049821;28;20047;-75
2021/04/28 01:04:22;;;;;;;29.80;15.45;;;;;;;4.14;42.99;98101.00;5050631;28;20477;-75
2021/04/28 01:06:49;;;;;;;30.90;15.88;;;;;;;4.15;42.73;98097.22;5053669;28;20103;-75
2021/04/28 01:09:16;;;;;;;37.00;16.67;;;;;;;4.16;42.29;98098.84;5053696;28;20021;-76
2021/04/28 01:11:43;;;;;;;32.67;15.88;;;;;;;4.17;43.10;98092.34;5053536;28;20377;-76
2021/04/28 01:14:09;;;;;;;31.75;16.05;;;;;;;4.17;42.18;98102.38;5053773;28;20036;-76
2021/04/28 01:16:35;;;;;;;31.48;15.73;;;;;;;4.15;42.54;98099.09;5053500;28;20037;-76
2021/04/28 01:19:02;;;;;;;31.17;16.60;;;;;;;4.04;43.07;98098.22;5053671;28;20079;-76
2021/04/28 01:21:27;;;;;;;34.63;15.85;;;;;;;4.02;42.83;98097.69;5049886;28;20017;-76
2021/04/28 01:23:53;;;;;;;30.00;15.02;;;;;;;3.97;43.10;98100.34;5053771;28;20473;-77
2021/04/28 01:26:22;;;;;;;35.90;15.98;;;;;;;3.95;42.73;98097.09;5053240;28;20029;-76
2021/04/28 01:28:49;;;;;;;32.92;15.70;;;;;;;3.91;42.79;98104.09;5051275;28;20071;-76
2021/04/28 01:31:15;;;;;;;31.55;15.40;;;;;;;3.88;43.01;98113.59;5052119;28;20761;-76
2021/04/28 01:33:46;;;;;;;32.17;15.30;;;;;;;3.87;43.21;98106.53;5053137;28;20033;-76
2021/04/28 01:36:17;;;;;;;33.92;15.88;;;;;;;3.86;43.39;98108.44;5052858;28;20029;-76
2021/04/28 01:38:48;;;;;;;29.15;14.73;;;;;;;3.80;43.43;98104.06;5053025;28;20074;-76
2021/04/28 01:41:14;;;;;;;31.83;14.73;;;;;;;3.77;42.95;98101.03;5052856;28;20025;-75
2021/04/28 01:43:41;;;;;;;30.65;14.98;;;;;;;3.76;43.51;98099.41;5053088;28;20029;-75
2021/04/28 01:46:08;;;;;;;33.25;14.85;;;;;;;3.73;43.79;98096.13;5053021;28;20060;-76
2021/04/28 01:48:34;;;;;;;31.42;15.30;;;;;;;3.71;43.07;98098.28;5053451;28;20025;-76
2021/04/28 01:51:00;;;;;;;30.30;14.90;;;;;;;3.69;43.25;98094.22;5051559;28;20036;-76
2021/04/28 01:53:26;;;;;;;30.48;14.85;;;;;;;3.67;43.69;98089.03;5052835;28;20021;-77
2021/04/28 01:55:53;;;;;;;29.65;15.02;;;;;;;3.67;43.69;98088.22;5052670;28;20025;-77
2021/04/28 01:58:21;;;;;;;30.20;15.63;;;;;;;3.61;43.96;98086.53;5052903;28;20452;-76
2021/04/28 02:00:47;;;;;;;30.58;14.38;;;;;;;3.55;43.68;98088.41;5050067;28;20089;-76
2021/04/28 02:03:13;;;;;;;33.67;16.25;;;;;;;3.53;43.52;98082.44;5052699;28;20470;-77
2021/04/28 02:05:38;;;;;;;32.78;16.50;;;;;;;3.53;44.05;98083.22;5052487;28;20108;-77
2021/04/28 02:08:06;;;;;;;33.38;15.50;;;;;;;3.52;44.07;98087.03;5052468;28;20013;-77
2021/04/28 02:10:32;;;;;;;33.50;16.38;;;;;;;3.52;43.58;98086.22;5052459;28;20367;-76
2021/04/28 02:12:57;;;;;;;34.72;16.50;;;;;;;3.48;43.52;98085.91;5052566;28;20397;-77
2021/04/28 02:15:24;;;;;;;38.42;16.25;;;;;;;3.47;43.72;98083.47;5051089;28;20025;-76
2021/04/28 02:17:56;;;;;;;33.80;16.63;;;;;;;3.45;44.24;98085.63;5052326;28;20041;-78
2021/04/28 02:20:24;;;;;;;31.90;16.45;;;;;;;3.43;43.71;98080.47;5053171;28;20025;-76
2021/04/28 02:22:49;;;;;;;37.28;17.02;;;;;;;3.40;44.31;98078.28;5049612;28;20021;-76
2021/04/28 02:25:15;;;;;;;30.73;16.98;;;;;;;3.38;44.52;98081.22;5053239;28;20039;-76
2021/04/28 02:27:41;;;;;;;31.73;16.48;;;;;;;3.38;43.84;98081.22;5053599;28;20461;-76
2021/04/28 02:30:09;;;;;;;34.55;16.58;;;;;;;3.36;44.64;98083.38;5053614;28;20036;-76
2021/04/28 02:32:34;;;;;;;33.22;16.45;;;;;;;3.32;43.87;98086.88;5053263;28;20029;-78
2021/04/28 02:35:00;;;;;;;35.22;17.70;;;;;;;3.30;44.16;98078.97;5053339;28;20373;-76
2021/04/28 02:37:27;;;;;;;32.90;16.92;;;;;;;3.23;44.70;98081.91;5053083;28;20100;-77
2021/04/28 02:39:59;;;;;;;40.40;18.92;;;;;;;3.20;44.68;98084.34;5050222;28;20021;-76
2021/04/28 02:42:25;;;;;;;53.55;23.25;;;;;;;3.19;44.88;98082.69;5053120;28;20031;-76
2021/04/28 02:44:50;;;;;;;74.55;26.48;;;;;;;3.16;44.33;98084.00;5052418;28;20100;-76
2021/04/28 02:47:16;;;;;;;64.78;27.17;;;;;;;3.11;44.54;98084.78;5052364;28;20079;-76
2021/04/28 02:49:42;;;;;;;55.33;27.70;;;;;;;3.07;45.11;98075.53;5052388;28;20427;-76
2021/04/28 02:52:10;;;;;;;52.88;30.23;;;;;;;3.04;44.67;98081.47;5052241;28;20037;-76
2021/04/28 02:54:37;;;;;;;110.75;67.50;;;;;;;3.02;44.52;98077.38;5052141;28;20556;-77
2021/04/28 02:57:04;;;;;;;161.68;102.40;;;;;;;3.02;45.23;98071.97;5052467;28;20061;-77
2021/04/28 02:59:30;;;;;;;191.82;111.00;;;;;;;3.02;45.21;98071.97;5053461;28;20024;-77
2021/04/28 03:01:56;;;;;;;175.98;106.35;;;;;;;3.01;45.39;98073.84;5052896;28;20028;-76
2021/04/28 03:04:22;;;;;;;103.03;58.80;;;;;;;3.00;45.56;98072.22;5053342;28;20025;-76
2021/04/28 03:06:48;;;;;;;90.85;47.25;;;;;;;3.00;45.21;98076.81;5053080;28;20024;-76
2021/04/28 03:09:14;;;;;;;71.47;36.58;;;;;;;3.00;45.39;98071.41;5052906;28;20033;-76
2021/04/28 03:11:42;;;;;;;64.82;34.83;;;;;;;2.95;45.00;98067.56;5051772;28;20531;-77
2021/04/28 03:14:08;;;;;;;59.40;30.83;;;;;;;2.96;45.07;98068.38;5052679;28;20021;-76
2021/04/28 03:16:33;;;;;;;56.78;28.17;;;;;;;2.92;45.07;98072.66;5048742;28;20401;-77
2021/04/28 03:19:04;;;;;;;53.60;26.83;;;;;;;2.86;45.54;98069.09;5052618;28;20017;-76
2021/04/28 03:21:33;;;;;;;48.38;24.48;;;;;;;2.80;45.38;98073.66;5051390;28;20021;-76
2021/04/28 03:24:00;;;;;;;46.05;23.52;;;;;;;2.81;45.43;98071.75;5052535;28;20071;-77
2021/04/28 03:26:26;;;;;;;48.20;23.05;;;;;;;2.81;45.08;98077.16;5052349;28;20017;-76
2021/04/28 03:28:51;;;;;;;45.33;20.05;;;;;;;2.81;45.57;98077.16;5052116;28;20025;-77
2021/04/28 03:31:16;;;;;;;44.15;19.45;;;;;;;2.82;45.89;98081.50;5052431;28;20020;-76
2021/04/28 03:33:42;;;;;;;47.08;20.90;;;;;;;2.82;46.07;98079.63;5051667;28;20028;-76
2021/04/28 03:36:07;;;;;;;55.00;22.35;;;;;;;2.82;46.20;98087.75;5051524;28;20035;-77
2021/04/28 03:38:33;;;;;;;61.75;22.67;;;;;;;2.83;45.36;98081.28;5051322;28;20082;-76
2021/04/28 03:40:58;;;;;;;56.03;23.27;;;;;;;2.85;46.07;98086.44;5052325;28;20025;-77
2021/04/28 03:43:24;;;;;;;59.15;23.90;;;;;;;2.85;46.10;98083.72;5051470;28;20064;-77
2021/04/28 03:45:51;;;;;;;52.13;22.10;;;;;;;2.86;46.13;98082.66;5051209;28;20477;-77
2021/04/28 03:48:17;;;;;;;52.60;23.25;;;;;;;2.86;45.80;98074.53;5051227;28;20127;-76
2021/04/28 03:50:42;;;;;;;50.08;22.42;;;;;;;2.87;45.92;98075.31;5051287;28;20147;-77
2021/04/28 03:53:08;;;;;;;56.00;24.58;;;;;;;2.87;46.00;98078.84;5050535;28;20060;-77
2021/04/28 03:55:33;;;;;;;51.55;23.00;;;;;;;2.86;45.76;98079.09;5051554;28;20453;-76
2021/04/28 03:57:59;;;;;;;44.80;21.85;;;;;;;2.86;45.92;98081.81;5051087;28;20104;-76
2021/04/28 04:00:24;;;;;;;44.78;22.38;;;;;;;2.89;46.09;98084.00;5051369;28;20107;-76
2021/04/28 04:02:50;;;;;;;54.03;24.77;;;;;;;2.89;45.92;98075.88;5050806;28;20389;-76
2021/04/28 04:05:15;;;;;;;63.28;25.70;;;;;;;2.90;46.55;98072.94;5051272;28;20542;-76
2021/04/28 04:07:41;;;;;;;54.92;24.10;;;;;;;2.90;46.24;98078.34;5051593;28;20435;-76
2021/04/28 04:10:06;;;;;;;60.22;26.13;;;;;;;2.91;46.53;98077.28;5051320;28;20009;-77
2021/04/28 04:12:32;;;;;;;54.35;23.95;;;;;;;2.94;46.62;98079.47;5051862;28;20033;-76
2021/04/28 04:14:57;;;;;;;54.35;25.45;;;;;;;2.99;46.32;98076.00;5049841;28;20049;-77
2021/04/28 04:17:23;;;;;;;57.60;24.40;;;;;;;3.01;46.67;98084.69;5050498;28;20063;-77
2021/04/28 04:19:48;;;;;;;59.38;25.52;;;;;;;3.03;46.87;98069.00;5050773;28;20017;-75
2021/04/28 04:22:14;;;;;;;63.92;27.23;;;;;;;3.07;46.70;98074.69;5050686;28;20028;-75
2021/04/28 04:24:40;;;;;;;58.78;25.63;;;;;;;3.11;46.93;98075.81;5050932;28;20029;-75
2021/04/28 04:27:06;;;;;;;63.80;26.27;;;;;;;3.14;46.89;98080.72;5051108;28;20103;-76
2021/04/28 04:29:32;;;;;;;54.63;25.10;;;;;;;3.19;47.15;98078.06;5051293;28;20128;-76
2021/04/28 04:31:57;;;;;;;62.35;25.45;;;;;;;3.22;46.69;98085.69;5051271;28;20040;-75
2021/04/28 04:34:22;;;;;;;51.30;23.95;;;;;;;3.27;47.18;98079.50;5051091;28;20397;-76
2021/04/28 04:36:48;;;;;;;51.90;23.27;;;;;;;3.31;47.22;98077.91;5051062;28;20491;-76
2021/04/28 04:39:13;;;;;;;51.95;23.00;;;;;;;3.30;47.15;98083.59;5047516;28;20461;-76
2021/04/28 04:41:39;;;;;;;51.63;23.20;;;;;;;3.32;47.38;98090.38;5054605;28;20021;-76
2021/04/28 04:44:04;;;;;;;49.90;24.13;;;;;;;3.39;47.19;98095.59;5050274;28;20025;-75
2021/04/28 04:46:30;;;;;;;53.67;23.67;;;;;;;3.48;47.66;98085.09;5050693;28;20016;-76
2021/04/28 04:48:55;;;;;;;50.80;23.85;;;;;;;3.56;47.04;98093.56;5050233;28;20025;-76
2021/04/28 04:51:21;;;;;;;60.90;25.27;;;;;;;3.67;47.17;98091.75;5050980;28;20037;-76
2021/04/28 04:53:46;;;;;;;57.80;25.63;;;;;;;3.81;47.52;98094.84;5051180;28;20021;-76
2021/04/28 04:56:12;;;;;;;56.45;25.08;;;;;;;3.95;47.07;98099.78;5051109;28;20029;-76
2021/04/28 04:58:37;;;;;;;56.55;25.33;;;;;;;4.09;47.27;98098.25;5051062;28;20017;-76
2021/04/28 05:01:03;;;;;;;64.97;26.65;;;;;;;4.27;47.15;98097.00;5051424;28;20031;-76
2021/04/28 05:03:29;;;;;;;51.92;23.45;;;;;;;4.42;47.26;98098.16;5052070;28;20029;-76
2021/04/28 05:05:54;;;;;;;55.70;23.70;;;;;;;4.55;47.10;98092.22;5053286;28;20032;-75
2021/04/28 05:08:20;;;;;;;51.47;23.00;;;;;;;4.74;47.75;98083.59;5053095;28;20048;-76
2021/04/28 05:10:45;;;;;;;48.90;21.67;;;;;;;4.94;47.48;98079.28;5052714;28;20025;-76
2021/04/28 05:13:11;;;;;;;46.55;22.77;;;;;;;5.12;47.25;98081.53;5055813;28;20064;-76
2021/04/28 05:15:36;;;;;;;48.92;22.90;;;;;;;5.32;47.09;98079.88;5052941;28;20047;-76
2021/04/28 05:18:02;;;;;;;43.33;20.60;;;;;;;5.51;46.92;98088.31;5053200;28;20120;-76
2021/04/28 05:20:27;;;;;;;47.55;21.77;;;;;;;5.72;47.25;98085.63;5067504;28;20040;-77
2021/04/28 05:22:53;;;;;;;45.22;21.30;;;;;;;5.89;47.34;98080.72;5071878;28;20497;-77
2021/04/28 05:25:18;;;;;;;47.58;20.58;;;;;;;6.03;46.87;98083.69;5068918;28;20029;-76
2021/04/28 05:27:44;;;;;;;45.03;20.30;;;;;;;6.16;46.43;98076.84;5060065;28;20040;-77
2021/04/28 05:30:10;;;;;;;41.10;20.23;;;;;;;6.30;46.43;98082.53;5060035;28;20033;-77
2021/04/28 05:32:36;;;;;;;44.17;21.27;;;;;;;6.42;45.84;98076.75;5068137;28;20025;-76
2021/04/28 05:35:02;;;;;;;42.78;20.50;;;;;;;6.53;46.10;98077.53;5071924;28;20025;-76
2021/04/28 05:37:28;;;;;;;40.50;19.42;;;;;;;6.61;45.42;98073.44;5059137;28;20028;-76
2021/04/28 05:39:53;;;;;;;60.15;26.55;;;;;;;6.65;45.70;98078.03;5051813;28;20025;-77
2021/04/28 05:42:19;;;;;;;61.85;37.22;;;;;;;6.66;45.49;98082.38;5066294;28;20048;-77
2021/04/28 05:44:46;;;;;;;204.77;144.77;;;;;;;6.68;45.20;98082.91;5071861;28;20028;-76
2021/04/28 05:47:12;;;;;;;215.60;106.72;;;;;;;6.73;45.55;98082.06;5071077;28;20033;-77
2021/04/28 05:49:37;;;;;;;113.57;52.85;;;;;;;6.77;45.61;98079.63;5066083;28;20032;-76
2021/04/28 05:52:03;;;;;;;442.77;142.73;;;;;;;6.82;45.39;98072.22;5074059;28;20117;-77
2021/04/28 05:54:28;;;;;;;486.83;153.98;;;;;;;6.88;45.56;98072.19;5055401;28;20082;-77
2021/04/28 05:56:55;;;;;;;496.88;142.52;;;;;;;6.88;45.46;98081.19;5073298;28;20016;-76
2021/04/28 05:59:20;;;;;;;624.53;182.40;;;;;;;6.93;45.25;98081.16;5057803;28;20536;-76
2021/04/28 06:01:45;;;;;;;584.28;172.60;;;;;;;6.98;45.89;98081.13;5055276;28;20109;-76
2021/04/28 06:04:11;;;;;;;832.78;294.45;;;;;;;7.04;45.24;98079.19;5055062;28;20527;-76
2021/04/28 06:06:36;;;;;;;781.92;291.73;;;;;;;7.15;45.52;98082.66;5055452;28;20428;-77
2021/04/28 06:09:02;;;;;;;526.83;203.38;;;;;;;7.29;45.57;98083.66;5054282;28;20594;-76
2021/04/28 06:11:28;;;;;;;491.80;175.65;;;;;;;7.37;45.88;98087.69;5055208;28;20052;-76
2021/04/28 06:13:53;;;;;;;585.67;208.68;;;;;;;7.52;45.36;98084.03;5055265;28;20112;-76
2021/04/28 06:16:18;;;;;;;545.85;193.00;;;;;;;7.69;45.64;98080.06;5059700;28;20079;-76
2021/04/28 06:18:47;;;;;;;324.23;105.20;;;;;;;7.84;45.00;98088.09;5055019;28;20372;-76
2021/04/28 06:21:12;;;;;;;259.00;84.93;;;;;;;7.98;45.27;98084.72;5054852;28;20063;-76
2021/04/28 06:23:38;;;;;;;218.50;77.15;;;;;;;8.14;45.02;98082.63;5059339;28;20480;-75
2021/04/28 06:26:05;;;;;;;203.50;78.95;;;;;;;8.28;44.98;98083.59;5074097;28;20024;-75
2021/04/28 06:28:30;;;;;;;157.23;67.32;;;;;;;8.43;44.24;98079.03;5071744;28;20025;-75
2021/04/28 06:30:56;;;;;;;115.45;56.00;;;;;;;8.53;44.34;98080.88;5060115;28;20017;-75
2021/04/28 06:33:21;;;;;;;73.75;40.25;;;;;;;8.64;44.07;98072.25;5061883;28;20055;-77
2021/04/28 06:35:46;;;;;;;43.35;24.02;;;;;;;8.72;43.58;98070.78;5051630;28;20021;-76
2021/04/28 06:38:12;;;;;;;51.95;25.33;;;;;;;8.83;43.86;98063.25;5052120;28;20025;-75
2021/04/28 06:40:38;;;;;;;43.33;23.10;;;;;;;9.00;43.76;98065.47;5060183;28;20485;-76
2021/04/28 06:43:04;;;;;;;40.50;22.00;;;;;;;9.09;43.06;98063.69;5073443;28;20495;-78
2021/04/28 06:45:30;;;;;;;35.70;17.90;;;;;;;9.17;43.14;98070.41;5073799;28;20481;-77
2021/04/28 06:47:56;;;;;;;32.00;17.02;;;;;;;9.25;43.10;98055.28;5074355;28;20027;-78
2021/04/28 06:50:21;;;;;;;32.08;17.50;;;;;;;9.31;42.85;98061.47;5071987;28;20112;-78
2021/04/28 06:52:47;;;;;;;32.28;18.30;;;;;;;9.33;42.80;98061.97;5050057;28;20460;-75
2021/04/28 06:55:13;;;;;;;31.58;17.92;;;;;;;9.47;43.05;98064.78;5053217;28;20436;-75
2021/04/28 06:57:38;;;;;;;26.17;14.52;;;;;;;9.56;42.83;98054.78;5072751;28;20028;-76
2021/04/28 07:00:05;;;;;;;30.35;16.60;;;;;;;9.59;42.31;98059.66;5065435;28;20028;-75
2021/04/28 07:02:31;;;;;;;27.38;15.52;;;;;;;9.66;42.09;98051.03;5066441;28;20021;-75
2021/04/28 07:04:56;;;;;;;31.13;15.68;;;;;;;9.65;41.82;98047.50;5060550;28;20419;-76
2021/04/28 07:07:22;;;;;;;29.08;15.43;;;;;;;9.63;41.90;98047.00;5059929;28;20037;-76
2021/04/28 07:09:47;;;;;;;30.60;16.63;;;;;;;9.67;41.55;98039.81;5053947;28;20044;-76
2021/04/28 07:12:13;;;;;;;26.58;13.10;;;;;;;9.77;42.02;98047.03;5053638;28;20068;-76
2021/04/28 07:14:38;;;;;;;26.83;15.05;;;;;;;9.85;42.16;98045.50;5053800;28;20025;-76
2021/04/28 07:17:03;;;;;;;28.65;14.75;;;;;;;9.90;41.58;98055.56;5053763;28;20044;-76
2021/04/28 07:19:29;;;;;;;24.33;13.18;;;;;;;9.94;41.81;98051.13;5053833;28;20021;-75
2021/04/28 07:21:54;;;;;;;32.92;15.75;;;;;;;9.97;42.03;98051.31;5053057;28;20527;-76
2021/04/28 07:24:20;;;;;;;27.63;14.80;;;;;;;10.05;41.58;98049.00;5053821;28;20060;-74
2021/04/28 07:26:46;;;;;;;32.20;15.15;;;;;;;10.07;41.79;98049.50;5053651;28;20397;-74
2021/04/28 07:29:11;;;;;;;27.63;14.57;;;;;;;10.09;41.60;98055.50;5053674;28;20421;-74
2021/04/28 07:31:37;;;;;;;26.52;13.32;;;;;;;10.16;41.91;98049.59;5053474;28;20085;-75
2021/04/28 07:34:03;;;;;;;37.30;15.55;;;;;;;10.20;42.09;98048.69;5053423;28;20025;-74
2021/04/28 07:36:28;;;;;;;31.73;14.88;;;;;;;10.25;41.59;98050.53;5053754;28;20021;-74
2021/04/28 07:38:54;;;;;;;24.20;13.07;;;;;;;10.30;41.31;98050.44;5053377;28;20528;-75
2021/04/28 07:41:19;;;;;;;20.58;11.98;;;;;;;10.40;40.89;98047.50;5053488;28;20044;-74
2021/04/28 07:43:44;;;;;;;23.73;11.00;;;;;;;10.47;40.69;98040.78;5053195;28;20572;-75
2021/04/28 07:46:10;;;;;;;20.48;11.82;;;;;;;10.55;40.80;98040.09;5053219;28;20108;-74
2021/04/28 07:48:35;;;;;;;21.35;12.13;;;;;;;10.66;40.60;98043.41;5052853;28;20028;-75
2021/04/28 07:51:01;;;;;;;23.95;12.32;;;;;;;10.78;41.18;98034.69;5051809;28;20017;-74
2021/04/28 07:53:27;;;;;;;20.35;11.50;;;;;;;10.87;40.85;98036.38;5053303;28;20461;-75
2021/04/28 07:55:53;;;;;;;24.65;13.02;;;;;;;10.96;40.80;98035.66;5053069;28;20029;-75
2021/04/28 07:58:19;;;;;;;24.45;13.38;;;;;;;11.08;40.79;98029.63;5052845;28;20032;-75
2021/04/28 08:00:44;;;;;;;23.15;10.77;;;;;;;11.16;40.29;98029.69;5052993;28;20397;-74
2021/04/28 08:03:10;;;;;;;22.88;10.13;;;;;;;11.23;40.41;98031.19;5053233;28;20100;-75
2021/04/28 08:05:35;;;;;;;21.08;10.90;;;;;;;11.33;40.50;98030.94;5052822;28;20043;-75
2021/04/28 08:08:01;;;;;;;18.25;10.55;;;;;;;11.44;40.57;98029.53;5052752;28;20060;-75
2021/04/28 08:10:27;;;;;;;21.77;11.32;;;;;;;11.57;40.61;98033.38;5052704;28;20447;-75
2021/04/28 08:12:52;;;;;;;16.92;10.35;;;;;;;11.70;39.97;98026.19;5052463;28;20025;-75
2021/04/28 08:15:18;;;;;;;21.98;10.85;;;;;;;11.82;39.78;98025.59;5052496;28;20021;-75
2021/04/28 08:17:43;;;;;;;19.02;10.48;;;;;;;11.95;40.24;98021.13;5052528;28;20515;-75
2021/04/28 08:20:11;;;;;;;17.42;9.88;;;;;;;12.03;39.71;98014.88;5052578;28;20033;-75
2021/04/28 08:22:37;;;;;;;17.55;10.20;;;;;;;12.15;39.55;98016.25;5052176;28;20039;-74
2021/04/28 08:25:07;;;;;;;19.38;10.98;;;;;;;12.28;39.33;98011.75;5052577;28;20017;-74
2021/04/28 08:27:33;;;;;;;15.60;8.32;;;;;;;12.35;39.47;98018.41;5052469;28;20068;-74
2021/04/28 08:29:58;;;;;;;18.83;9.07;;;;;;;12.45;38.64;98014.53;5052260;28;20060;-75
2021/04/28 08:32:24;;;;;;;14.23;7.50;;;;;;;12.56;38.85;98014.25;5052450;28;20478;-76
2021/04/28 08:34:50;;;;;;;19.15;9.30;;;;;;;12.63;38.59;98006.34;5052243;28;20025;-75
2021/04/28 08:37:15;;;;;;;16.05;8.02;;;;;;;12.76;38.91;98018.31;5051004;28;20025;-75
2021/04/28 08:39:41;;;;;;;17.67;9.45;;;;;;;12.87;38.74;98010.56;5052222;28;20061;-75
2021/04/28 08:42:07;;;;;;;13.23;7.47;;;;;;;12.99;38.49;97998.94;5052077;28;20408;-74
2021/04/28 08:44:34;;;;;;;17.50;8.10;;;;;;;13.10;38.45;97998.28;5050910;28;20025;-75
2021/04/28 08:47:00;;;;;;;15.57;8.60;;;;;;;13.19;38.08;98000.22;5052325;28;20039;-76
2021/04/28 08:49:26;;;;;;;15.30;8.10;;;;;;;13.22;37.74;97999.56;5051174;28;20025;-76
2021/04/28 08:51:51;;;;;;;16.02;7.95;;;;;;;13.23;36.78;97992.94;5052198;28;20044;-76
2021/04/28 08:54:17;;;;;;;12.57;6.70;;;;;;;13.28;36.84;97991.94;5050981;28;20025;-75
2021/04/28 08:56:50;;;;;;;8.48;5.40;;;;;;;13.40;37.49;97997.63;5050898;28;20378;-76
2021/04/28 08:59:17;;;;;;;10.30;5.38;;;;;;;13.49;37.11;98001.16;5052031;28;20491;-75
2021/04/28 09:01:45;;;;;;;11.35;5.72;;;;;;;13.61;36.87;97997.75;5051982;28;20025;-76
2021/04/28 09:04:14;;;;;;;14.82;7.43;;;;;;;13.64;37.15;98002.63;5050507;28;20077;-75
2021/04/28 09:06:39;;;;;;;16.23;9.90;;;;;;;13.74;37.05;97990.44;5050475;28;20025;-75
2021/04/28 09:09:08;;;;;;;14.45;7.05;;;;;;;13.86;36.99;97988.94;5051485;28;20163;-75
2021/04/28 09:11:39;;;;;;;19.42;9.00;;;;;;;13.93;35.99;97994.72;5051898;28;20033;-77
2021/04/28 09:14:07;;;;;;;11.15;6.32;;;;;;;13.93;35.43;97992.78;5051982;28;20025;-77
2021/04/28 09:16:32;;;;;;;13.55;7.13;;;;;;;13.89;34.44;97991.00;5052279;28;20409;-76
2021/04/28 09:18:57;;;;;;;11.68;6.72;;;;;;;13.85;34.45;97985.38;5052163;28;20033;-74
2021/04/28 09:21:53;;;;;;;14.57;6.90;;;;;;;13.92;35.35;97993.13;5050748;28;20036;-74
2021/04/28 09:24:24;;;;;;;10.05;6.28;;;;;;;14.03;35.68;97988.84;5051421;28;20116;-74
2021/04/28 09:26:50;;;;;;;9.57;6.18;;;;;;;14.16;34.87;97978.75;5055089;28;20035;-74
2021/04/28 09:29:17;;;;;;;13.32;7.13;;;;;;;14.19;34.43;97977.28;5056035;28;20029;-74
2021/04/28 09:32:09;;;;;;;8.60;5.60;;;;;;;14.23;34.51;97975.47;5056112;28;20021;-75
2021/04/28 09:34:41;;;;;;;10.23;5.50;;;;;;;14.29;34.99;97961.16;5084230;28;20041;-75
2021/04/28 09:37:15;;;;;;;11.65;6.03;;;;;;;14.36;34.13;97971.66;5056150;28;20064;-74
2021/04/28 09:39:48;;;;;;;11.43;6.03;;;;;;;14.37;33.92;97958.69;5056017;28;20122;-74
2021/04/28 09:42:16;;;;;;;12.00;5.95;;;;;;;14.44;34.97;97953.47;5055839;28;20025;-75
2021/04/28 09:44:45;;;;;;;9.48;5.72;;;;;;;14.58;34.76;97947.69;5055687;28;20108;-75
2021/04/28 09:47:22;;;;;;;10.90;5.35;;;;;;;14.64;34.28;97942.75;5055686;28;20071;-75
2021/04/28 09:49:59;;;;;;;10.65;5.55;;;;;;;14.72;34.28;97939.16;5055690;28;20033;-74
2021/04/28 09:52:31;;;;;;;25.27;6.40;;;;;;;14.79;33.92;97941.38;5055323;28;20021;-74
2021/04/28 09:55:02;;;;;;;18.77;8.23;;;;;;;14.82;33.89;97938.75;5055541;28;20029;-74
2021/04/28 09:57:38;;;;;;;9.73;5.28;;;;;;;14.91;33.94;97935.09;5053679;28;20435;-75
2021/04/28 10:00:15;;;;;;;9.25;6.00;;;;;;;15.02;33.63;97942.66;5053801;28;20393;-75
2021/04/28 10:02:41;;;;;;;8.43;5.38;;;;;;;15.11;33.39;97934.28;5054103;28;20025;-75
2021/04/28 10:05:17;;;;;;;8.68;5.70;;;;;;;15.20;33.15;97939.72;5053256;28;20496;-75
2021/04/28 10:07:43;;;;;;;11.18;6.45;;;;;;;15.18;32.94;97925.44;5054328;28;20032;-75
2021/04/28 10:10:10;;;;;;;9.82;7.45;;;;;;;15.26;32.89;97926.53;5053138;28;20385;-75
2021/04/28 10:12:35;;;;;;;10.52;5.45;;;;;;;15.32;33.57;97923.19;5053556;28;20025;-74
2021/04/28 10:15:01;;;;;;;9.90;4.78;;;;;;;15.47;32.84;97912.63;5054287;28;20025;-75
2021/04/28 10:17:28;;;;;;;10.65;5.25;;;;;;;15.49;32.72;97918.59;5054367;28;20447;-75
2021/04/28 10:19:56;;;;;;;8.43;5.18;;;;;;;15.49;32.93;97915.84;5054679;28;20025;-75
2021/04/28 10:22:23;;;;;;;11.18;6.75;;;;;;;15.56;33.06;97909.78;5055010;28;20025;-75
2021/04/28 10:24:50;;;;;;;12.98;6.10;;;;;;;15.64;33.01;97908.88;5054676;28;20488;-75
2021/04/28 10:27:18;;;;;;;9.77;5.93;;;;;;;15.71;32.96;97905.53;5055087;28;20033;-75
2021/04/28 10:29:48;;;;;;;8.40;5.68;;;;;;;15.82;32.89;97905.88;5055048;28;20480;-74
2021/04/28 10:32:15;;;;;;;11.07;6.07;;;;;;;15.89;32.78;97898.66;5055318;28;20052;-74
2021/04/28 10:35:05;;;;;;;9.88;6.15;;;;;;;16.01;32.75;97902.56;5054971;28;20036;-75
2021/04/28 10:37:33;;;;;;;9.23;5.63;;;;;;;16.10;32.88;97888.63;5054835;28;20485;-75
2021/04/28 10:39:59;;;;;;;9.98;6.38;;;;;;;16.15;32.32;97885.59;5055019;28;20366;-75
2021/04/28 10:42:34;;;;;;;9.95;5.50;;;;;;;16.18;32.12;97887.69;5054884;28;20021;-74
2021/04/28 10:45:05;;;;;;;9.93;5.53;;;;;;;16.27;32.97;97882.03;5086983;28;20032;-75
2021/04/28 10:47:35;;;;;;;10.50;5.72;;;;;;;16.31;31.69;97875.44;5087092;28;20033;-75
2021/04/28 10:50:05;;;;;;;8.93;5.35;;;;;;;16.33;31.74;97867.59;5055045;28;20388;-75
2021/04/28 10:52:36;;;;;;;10.40;5.60;;;;;;;16.40;31.82;97880.06;5054681;28;20033;-74
2021/04/28 10:55:03;;;;;;;8.75;5.20;;;;;;;16.49;31.22;97880.72;5053338;28;20033;-75
2021/04/28 10:57:39;;;;;;;9.15;5.30;;;;;;;16.54;31.95;97880.47;5054416;28;20028;-74
2021/04/28 11:00:20;;;;;;;11.10;5.28;;;;;;;16.67;31.67;97875.72;5086537;28;20094;-74
2021/04/28 11:02:46;;;;;;;11.90;6.93;;;;;;;16.77;31.97;97874.41;5053822;28;20481;-74
2021/04/28 11:05:26;;;;;;;9.52;6.18;;;;;;;16.88;31.78;97869.97;5052721;28;20108;-74
2021/04/28 11:07:52;;;;;;;;;;;;;;;16.97;31.71;97864.31;5054359;28;20074;-74
2021/04/28 11:10:35;;;;;;;12.85;6.65;;;;;;;17.09;31.68;97869.81;5053834;28;20360;-74
2021/04/28 11:13:08;;;;;;;8.05;5.20;;;;;;;17.19;29.57;97868.47;5053908;28;20389;-74
2021/04/28 11:15:50;;;;;;;8.98;4.55;;;;;;;17.25;30.11;97857.91;5053729;28;20059;-75
2021/04/28 11:18:31;;;;;;;8.35;4.90;;;;;;;17.30;30.90;97859.66;5054195;28;20036;-74
2021/04/28 11:21:12;;;;;;;8.80;5.15;;;;;;;17.36;31.07;97853.47;5053696;28;20035;-75
2021/04/28 11:24:04;;;;;;;6.53;4.45;;;;;;;17.42;30.77;97859.53;5053682;28;20025;-74